Time;durP1;ratioP1;P1;durP2;ratioP2;P2;SDS_P1;SDS_P2;PMS_P1;PMS_P2;Temp;Humidity;BMP_temperature;BMP_pressure;BME280_temperature;BME280_humidity;BME280_pressure;Samples;Min_cycle;Max_cycle;Signal;HPM_P1;HPM_P2
2023/01/23 00:01:40;;;;;;;4.60;3.77;;;;;;;10.09;82.15;95233.75;5049873;28;20434;-73
2023/01/23 00:04:06;;;;;;;7.50;4.20;;;;;;;10.00;82.89;95219.16;5068224;28;20417;-73
2023/01/23 00:06:32;;;;;;;6.73;4.50;;;;;;;10.12;82.96;95232.53;5070196;28;20475;-73
2023/01/23 00:08:57;;;;;;;5.65;4.28;;;;;;;10.04;83.47;95237.97;5070179;28;20878;-73
2023/01/23 00:11:26;;;;;;;7.57;4.37;;;;;;;9.92;83.62;95253.53;5070803;28;20633;-73
2023/01/23 00:13:52;;;;;;;7.63;4.65;;;;;;;9.79;84.27;95258.72;5070372;28;20452;-73
2023/01/23 00:16:22;;;;;;;7.50;5.13;;;;;;;9.80;84.51;95255.09;5069501;28;20409;-73
2023/01/23 00:18:49;;;;;;;7.45;4.20;;;;;;;9.90;83.56;95244.22;5069470;28;20835;-73
2023/01/23 00:21:25;;;;;;;5.22;4.15;;;;;;;9.89;83.90;95248.66;5069750;28;20410;-72
2023/01/23 00:23:54;;;;;;;6.10;4.32;;;;;;;9.99;83.35;95243.84;5069501;28;20401;-73
2023/01/23 00:26:23;;;;;;;6.77;4.60;;;;;;;9.82;83.87;95245.19;5069692;28;20413;-73
2023/01/23 00:28:50;;;;;;;8.07;4.25;;;;;;;9.95;83.40;95254.94;5069942;28;20433;-73
2023/01/23 00:31:17;;;;;;;5.00;3.90;;;;;;;9.91;83.41;95254.53;5069089;28;20429;-72
2023/01/23 00:33:43;;;;;;;6.18;4.20;;;;;;;10.00;83.19;95244.66;5069241;28;20441;-73
2023/01/23 00:36:10;;;;;;;4.78;4.28;;;;;;;9.91;83.73;95253.72;5069170;28;20438;-73
2023/01/23 00:38:36;;;;;;;5.68;4.05;;;;;;;10.12;82.83;95256.19;5069186;28;20433;-73
2023/01/23 00:41:02;;;;;;;5.03;4.00;;;;;;;10.12;82.48;95274.63;5069255;28;20420;-73
2023/01/23 00:43:29;;;;;;;8.10;4.60;;;;;;;9.99;83.08;95259.63;5069633;28;20413;-72
2023/01/23 00:45:54;;;;;;;5.70;4.45;;;;;;;10.01;83.41;95262.06;5069489;28;20770;-73
2023/01/23 00:48:20;;;;;;;6.83;4.70;;;;;;;9.98;83.57;95259.81;5068819;28;20413;-72
2023/01/23 00:50:45;;;;;;;5.60;4.10;;;;;;;10.03;82.94;95267.94;5069655;28;20507;-73
2023/01/23 00:53:12;;;;;;;5.55;3.90;;;;;;;9.94;83.50;95261.22;5069809;28;20462;-72
2023/01/23 00:55:37;;;;;;;5.50;4.07;;;;;;;9.99;83.07;95257.00;5068984;28;20417;-73
2023/01/23 00:58:03;;;;;;;5.70;4.10;;;;;;;9.94;83.17;95262.03;5069262;28;20409;-73
2023/01/23 01:00:28;;;;;;;4.53;3.80;;;;;;;9.94;83.24;95266.50;5069070;28;20424;-73
2023/01/23 01:02:54;;;;;;;5.20;4.00;;;;;;;9.89;83.21;95253.09;5069794;28;20412;-73
2023/01/23 01:05:19;;;;;;;8.20;4.53;;;;;;;9.89;83.49;95264.44;5069528;28;20493;-73
2023/01/23 01:07:44;;;;;;;8.05;4.75;;;;;;;9.86;83.75;95253.50;5068881;28;20417;-73
2023/01/23 01:10:11;;;;;;;4.38;3.63;;;;;;;9.90;83.64;95246.84;5069083;28;20433;-73
2023/01/23 01:12:37;;;;;;;6.65;4.05;;;;;;;9.94;82.88;95234.94;5069019;28;20950;-73
2023/01/23 01:15:03;;;;;;;5.10;3.87;;;;;;;9.87;83.22;95249.84;5069241;28;20485;-72
2023/01/23 01:17:28;;;;;;;5.30;4.18;;;;;;;9.74;84.00;95255.88;5068575;28;20406;-72
2023/01/23 01:19:54;;;;;;;4.97;4.05;;;;;;;9.79;83.79;95246.38;5068778;28;20475;-72
2023/01/23 01:22:19;;;;;;;6.53;4.00;;;;;;;9.90;83.52;95252.09;5069098;28;21063;-73
2023/01/23 01:24:45;;;;;;;7.90;4.10;;;;;;;9.94;83.02;95258.59;5068832;28;20422;-73
2023/01/23 01:27:10;;;;;;;5.38;3.80;;;;;;;9.89;82.95;95271.50;5068602;28;20428;-73
2023/01/23 01:29:36;;;;;;;7.20;4.07;;;;;;;9.91;82.94;95272.13;5068905;28;20482;-72
2023/01/23 01:32:01;;;;;;;7.43;3.50;;;;;;;9.86;83.40;95272.69;5070018;28;20178;-73
2023/01/23 01:34:26;;;;;;;6.43;3.90;;;;;;;9.82;83.08;95282.00;5068946;28;20492;-73
2023/01/23 01:36:52;;;;;;;7.37;4.13;;;;;;;9.71;84.34;95280.72;5072117;28;20425;-73
2023/01/23 01:39:18;;;;;;;5.70;4.00;;;;;;;9.75;84.17;95284.59;5072623;28;20435;-72
2023/01/23 01:41:43;;;;;;;5.87;4.00;;;;;;;9.77;84.10;95292.31;5072694;28;20414;-73
2023/01/23 01:44:20;;;;;;;5.03;3.50;;;;;;;9.69;83.99;95293.25;5073132;28;20398;-72
2023/01/23 01:46:46;;;;;;;3.70;3.25;;;;;;;9.60;84.87;95281.28;5073119;28;20405;-72
2023/01/23 01:49:18;;;;;;;6.80;3.47;;;;;;;9.58;84.79;95287.75;5072321;28;20863;-72
2023/01/23 01:51:54;;;;;;;4.82;3.00;;;;;;;9.57;84.95;95281.69;5073413;28;20452;-73
2023/01/23 01:54:33;;;;;;;5.85;3.28;;;;;;;9.53;85.14;95306.69;5072402;28;20405;-72
2023/01/23 01:57:08;;;;;;;4.72;3.22;;;;;;;9.55;85.44;95280.25;5072681;28;20409;-72
2023/01/23 01:59:42;;;;;;;4.13;3.20;;;;;;;9.56;85.26;95273.97;5072298;28;20445;-72
2023/01/23 02:02:23;;;;;;;4.82;3.28;;;;;;;9.65;85.52;95278.88;5072135;28;20496;-72
2023/01/23 02:04:56;;;;;;;4.63;3.13;;;;;;;9.72;85.49;95290.25;5072356;28;21336;-72
2023/01/23 02:07:34;;;;;;;4.88;3.28;;;;;;;9.78;85.31;95305.22;5072016;28;20412;-72
2023/01/23 02:10:02;;;;;;;5.03;3.55;;;;;;;9.59;85.94;95281.50;5071846;28;21079;-72
2023/01/23 02:12:29;;;;;;;5.82;3.42;;;;;;;9.55;86.72;95296.00;5071962;28;20452;-72
2023/01/23 02:14:55;;;;;;;7.50;3.07;;;;;;;9.46;87.23;95279.59;5073108;28;20182;-72
2023/01/23 02:17:20;;;;;;;5.75;3.63;;;;;;;9.50;87.51;95283.47;5071789;28;20420;-73
2023/01/23 02:20:04;;;;;;;5.13;3.20;;;;;;;9.45;88.00;95289.28;5071344;28;20778;-72
2023/01/23 02:22:38;;;;;;;5.28;3.40;;;;;;;9.45;87.65;95294.53;5071761;28;20843;-72
2023/01/23 02:25:30;;;;;;;4.28;3.40;;;;;;;9.51;87.15;95286.91;5064059;28;20415;-73
2023/01/23 02:27:56;;;;;;;4.30;3.17;;;;;;;9.42;87.53;95288.88;5046622;28;20443;-73
2023/01/23 02:30:22;;;;;;;4.57;2.85;;;;;;;9.39;87.71;95284.00;5051874;28;20489;-73
2023/01/23 02:32:47;;;;;;;4.75;3.10;;;;;;;9.46;88.03;95290.09;5051804;28;20790;-73
2023/01/23 02:35:25;;;;;;;3.63;2.90;;;;;;;9.36;88.22;95284.38;5051893;28;20407;-72
2023/01/23 02:37:53;;;;;;;4.05;2.90;;;;;;;9.31;88.47;95284.94;5051345;28;20845;-73
2023/01/23 02:40:21;;;;;;;4.72;3.10;;;;;;;9.34;88.65;95294.28;5052091;28;20408;-73
2023/01/23 02:42:48;;;;;;;4.00;2.88;;;;;;;9.41;88.56;95298.56;5051444;28;20410;-72
2023/01/23 02:45:13;;;;;;;4.82;3.50;;;;;;;9.29;88.52;95291.41;5051423;28;20404;-73
2023/01/23 02:47:38;;;;;;;4.23;2.87;;;;;;;9.26;89.20;95292.59;5051352;28;20490;-73
2023/01/23 02:50:04;;;;;;;4.70;2.93;;;;;;;9.30;88.46;95304.34;5071547;28;20584;-73
2023/01/23 02:52:30;;;;;;;5.07;3.05;;;;;;;9.22;89.00;95286.09;5071222;28;20908;-73
2023/01/23 02:54:56;;;;;;;5.03;2.97;;;;;;;9.22;88.81;95295.78;5072202;28;20421;-73
2023/01/23 02:57:21;;;;;;;4.17;2.60;;;;;;;9.19;89.04;95312.75;5046986;28;20430;-73
2023/01/23 03:02:31;;;;;;;3.83;2.72;;;;;;;9.22;88.91;95293.16;5051403;28;20434;-74
2023/01/23 03:04:56;;;;;;;5.17;3.20;;;;;;;9.18;88.77;95299.78;5050959;28;20906;-74
2023/01/23 03:07:21;;;;;;;3.67;2.83;;;;;;;9.18;88.96;95297.16;5051150;28;20494;-74
2023/01/23 03:09:47;;;;;;;4.53;2.80;;;;;;;9.20;88.59;95295.16;5050804;28;20469;-74
2023/01/23 03:12:14;;;;;;;3.67;2.40;;;;;;;9.24;88.21;95299.88;5051152;28;20418;-74
2023/01/23 03:14:40;;;;;;;3.97;2.63;;;;;;;9.25;88.23;95306.75;5069312;28;20405;-74
2023/01/23 03:17:06;;;;;;;4.07;2.70;;;;;;;9.04;89.37;95306.78;5070731;28;20417;-74
2023/01/23 03:19:31;;;;;;;3.08;2.72;;;;;;;9.12;88.64;95309.25;5070626;28;20492;-74
2023/01/23 03:21:56;;;;;;;2.80;2.40;;;;;;;9.06;88.42;95292.47;5070955;28;20409;-74
2023/01/23 03:24:22;;;;;;;3.58;2.40;;;;;;;9.04;88.54;95306.78;5070672;28;20413;-74
2023/01/23 03:26:49;;;;;;;2.83;2.38;;;;;;;8.92;89.00;95300.41;5070908;28;20409;-74
2023/01/23 03:32:10;;;;;;;2.53;2.00;;;;;;;8.96;89.12;95305.09;5070686;28;20460;-74
2023/01/23 03:34:35;;;;;;;3.85;2.35;;;;;;;9.07;88.92;95299.34;5070473;28;20409;-74
2023/01/23 03:37:02;;;;;;;2.40;1.70;;;;;;;9.22;87.59;95290.53;5070273;28;20443;-74
2023/01/23 03:42:11;;;;;;;2.80;2.30;;;;;;;9.14;87.77;95303.81;5070537;28;20485;-74
2023/01/23 03:44:37;;;;;;;3.10;2.10;;;;;;;9.12;88.02;95300.56;5054391;28;20414;-74
2023/01/23 03:47:03;;;;;;;2.33;2.07;;;;;;;9.05;88.01;95300.53;5050306;28;20411;-74
2023/01/23 03:49:29;;;;;;;2.70;2.37;;;;;;;9.11;88.03;95302.38;5050649;28;20539;-74
2023/01/23 03:51:55;;;;;;;4.20;2.38;;;;;;;9.07;88.77;95307.22;5050483;28;20415;-74
2023/01/23 03:54:20;;;;;;;3.65;2.40;;;;;;;9.07;88.79;95309.84;5050638;28;20443;-73
2023/01/23 03:56:45;;;;;;;3.33;2.50;;;;;;;9.12;88.94;95298.75;5050301;28;20814;-74
2023/01/23 03:59:11;;;;;;;4.47;2.67;;;;;;;9.02;89.00;95314.03;5049865;28;20902;-74
2023/01/23 04:01:37;;;;;;;4.27;3.00;;;;;;;9.12;88.48;95298.75;5050223;28;20488;-74
2023/01/23 04:04:03;;;;;;;4.18;2.85;;;;;;;9.00;89.01;95292.38;5049960;28;20410;-74
2023/01/23 04:06:29;;;;;;;4.30;3.07;;;;;;;8.96;89.53;95296.41;5047592;28;20427;-74
2023/01/23 04:08:56;;;;;;;4.68;3.22;;;;;;;8.86;89.60;95309.84;5049925;28;20927;-74
2023/01/23 04:11:22;;;;;;;4.95;3.17;;;;;;;8.82;89.84;95310.44;5049879;28;20414;-73
2023/01/23 04:13:48;;;;;;;5.00;3.50;;;;;;;8.93;89.59;95294.97;5049831;28;20423;-74
2023/01/23 04:16:13;;;;;;;6.87;3.30;;;;;;;8.93;89.52;95291.53;5048375;28;20925;-73
2023/01/23 04:18:39;;;;;;;5.77;3.30;;;;;;;8.91;89.05;95293.53;5049634;28;20403;-74
2023/01/23 04:21:04;;;;;;;6.77;3.90;;;;;;;8.84;89.84;95301.34;5048488;28;20423;-74
2023/01/23 04:23:30;;;;;;;6.07;3.13;;;;;;;8.81;89.89;95304.38;5057233;28;20490;-73
2023/01/23 04:25:56;;;;;;;3.83;3.25;;;;;;;8.91;89.89;95325.03;5047694;28;20512;-73
2023/01/23 04:28:21;;;;;;;4.40;3.15;;;;;;;8.82;89.35;95323.56;5054074;28;20892;-73
2023/01/23 04:30:49;;;;;;;6.78;3.20;;;;;;;8.78;89.62;95303.91;5069965;28;20412;-73
2023/01/23 04:33:14;;;;;;;4.70;3.05;;;;;;;8.87;89.10;95310.66;5053317;28;20510;-73
2023/01/23 04:35:39;;;;;;;4.22;2.88;;;;;;;8.85;89.16;95321.34;5038678;28;20534;-73
2023/01/23 04:38:05;;;;;;;3.90;2.60;;;;;;;8.74;89.11;95321.84;5042271;28;20457;-73
2023/01/23 04:40:30;;;;;;;3.85;2.75;;;;;;;8.80;89.01;95320.31;5044374;28;20518;-73
2023/01/23 04:42:55;;;;;;;3.87;2.57;;;;;;;8.71;88.55;95317.00;5037679;28;20510;-73
2023/01/23 04:45:21;;;;;;;4.55;2.97;;;;;;;8.74;88.80;95329.72;5049014;28;20837;-73
2023/01/23 04:47:47;;;;;;;2.92;2.45;;;;;;;8.61;89.00;95332.22;5049257;28;20415;-73
2023/01/23 04:50:12;;;;;;;3.70;2.60;;;;;;;8.72;89.01;95342.25;5065509;28;20425;-73
2023/01/23 04:52:38;;;;;;;3.40;2.20;;;;;;;8.83;88.17;95318.09;5069283;28;20505;-73
2023/01/23 04:55:04;;;;;;;3.47;2.35;;;;;;;8.90;87.71;95326.06;5069948;28;20432;-73
2023/01/23 04:57:30;;;;;;;3.00;2.25;;;;;;;8.99;86.95;95330.97;5068807;28;20801;-73
2023/01/23 04:59:55;;;;;;;2.83;2.07;;;;;;;9.04;87.41;95333.84;5068937;28;20413;-73
2023/01/23 05:02:21;;;;;;;2.83;2.17;;;;;;;8.89;87.44;95341.00;5068746;28;20896;-73
2023/01/23 05:04:46;;;;;;;3.27;2.27;;;;;;;8.93;87.79;95347.47;5068789;28;20413;-74
2023/01/23 05:07:12;;;;;;;5.00;2.40;;;;;;;8.94;88.12;95335.97;5069207;28;20421;-73
2023/01/23 05:09:38;;;;;;;4.25;2.67;;;;;;;8.74;89.24;95329.72;5069525;28;20430;-73
2023/01/23 05:12:04;;;;;;;5.20;2.50;;;;;;;8.92;88.53;95340.59;5073616;28;21322;-73
2023/01/23 05:14:30;;;;;;;4.60;2.33;;;;;;;8.81;89.06;95345.56;5073020;28;20421;-73
2023/01/23 05:16:55;;;;;;;4.90;2.80;;;;;;;8.81;89.14;95340.31;5066190;28;20438;-74
2023/01/23 05:19:21;;;;;;;7.00;3.00;;;;;;;8.69;89.91;95350.47;5053435;28;20404;-72
2023/01/23 05:21:47;;;;;;;4.73;2.27;;;;;;;8.57;90.44;95362.44;5052037;28;20985;-73
2023/01/23 05:24:12;;;;;;;5.20;2.70;;;;;;;8.61;90.77;95353.22;5052413;28;20502;-73
2023/01/23 05:26:38;;;;;;;3.97;2.57;;;;;;;8.64;90.37;95373.84;5052861;28;20430;-74
2023/01/23 05:29:03;;;;;;;4.30;2.33;;;;;;;8.63;90.35;95373.03;5053045;28;20427;-72
2023/01/23 05:31:29;;;;;;;4.63;2.60;;;;;;;8.68;89.81;95375.09;5052082;28;20502;-73
2023/01/23 05:33:54;;;;;;;3.97;2.40;;;;;;;8.77;89.73;95386.28;5052662;28;20443;-73
2023/01/23 05:36:21;;;;;;;4.07;2.60;;;;;;;8.86;89.54;95382.53;5052275;28;20509;-73
2023/01/23 05:38:46;;;;;;;3.58;2.15;;;;;;;8.82;89.00;95376.84;5051623;28;20859;-73
2023/01/23 05:41:12;;;;;;;3.37;2.43;;;;;;;8.87;89.01;95382.38;5051045;28;20423;-73
2023/01/23 05:43:37;;;;;;;4.27;2.70;;;;;;;8.81;88.81;95391.00;5050561;28;20419;-73
2023/01/23 05:46:03;;;;;;;3.53;2.50;;;;;;;8.84;88.69;95387.16;5051196;28;20502;-72
2023/01/23 05:48:28;;;;;;;2.78;2.13;;;;;;;8.90;88.00;95389.88;5052511;28;20419;-73
2023/01/23 05:50:54;;;;;;;2.47;2.10;;;;;;;8.86;88.16;95378.09;5051860;28;21156;-72
2023/01/23 05:53:19;;;;;;;2.13;1.90;;;;;;;8.93;87.79;95392.09;5053490;28;20207;-73
2023/01/23 05:55:44;;;;;;;3.53;2.23;;;;;;;8.94;87.04;95390.28;5052782;28;20614;-73
2023/01/23 05:58:10;;;;;;;2.10;1.83;;;;;;;8.91;86.86;95382.78;5052364;28;20920;-73
2023/01/23 06:00:35;;;;;;;3.87;1.80;;;;;;;8.96;86.38;95386.50;5052493;28;20404;-73
2023/01/23 06:03:01;;;;;;;3.07;2.33;;;;;;;8.77;87.19;95402.03;5052332;28;20504;-73
2023/01/23 06:05:26;;;;;;;4.10;2.10;;;;;;;8.74;86.69;95384.84;5052636;28;20860;-73
2023/01/23 06:07:52;;;;;;;3.30;2.10;;;;;;;8.92;86.70;95400.16;5052312;28;20423;-73
2023/01/23 06:10:17;;;;;;;3.27;2.10;;;;;;;8.94;85.97;95392.91;5053138;28;20210;-73
2023/01/23 06:12:43;;;;;;;3.77;1.97;;;;;;;8.91;85.96;95415.09;5052066;28;20411;-73
2023/01/23 06:15:09;;;;;;;3.43;2.00;;;;;;;8.75;86.57;95411.91;5052277;28;20790;-72
2023/01/23 06:17:34;;;;;;;3.67;2.10;;;;;;;8.83;86.09;95407.34;5052196;28;20415;-72
2023/01/23 06:20:00;;;;;;;3.78;2.40;;;;;;;8.97;85.76;95411.75;5051923;28;20407;-73
2023/01/23 06:22:25;;;;;;;4.43;2.20;;;;;;;9.02;85.70;95416.44;5051904;28;20403;-73
2023/01/23 06:24:51;;;;;;;2.90;2.20;;;;;;;9.07;85.29;95414.06;5051851;28;20462;-72
2023/01/23 06:27:17;;;;;;;2.95;2.10;;;;;;;8.97;84.91;95411.75;5052320;28;20528;-73
2023/01/23 06:29:42;;;;;;;6.33;2.03;;;;;;;9.01;85.22;95413.00;5051703;28;20526;-72
2023/01/23 06:32:08;;;;;;;4.03;2.20;;;;;;;9.15;84.40;95411.31;5052077;28;20419;-73
2023/01/23 06:34:33;;;;;;;4.23;3.00;;;;;;;9.22;84.28;95422.69;5051843;28;20439;-72
2023/01/23 06:36:58;;;;;;;4.80;2.53;;;;;;;9.12;84.97;95418.75;5051307;28;20453;-73
2023/01/23 06:39:24;;;;;;;3.38;2.28;;;;;;;8.98;85.12;95423.88;5051754;28;20403;-73
2023/01/23 06:41:49;;;;;;;4.43;2.37;;;;;;;8.95;85.45;95419.00;5051759;28;20516;-73
2023/01/23 06:44:15;;;;;;;4.72;2.40;;;;;;;9.01;85.62;95412.16;5051588;28;20399;-72
2023/01/23 06:46:40;;;;;;;5.50;2.73;;;;;;;8.93;86.26;95405.22;5051343;28;20427;-73
2023/01/23 06:49:05;;;;;;;4.50;3.13;;;;;;;9.03;86.22;95416.25;5050319;28;20814;-73
2023/01/23 06:51:32;;;;;;;4.93;3.13;;;;;;;9.06;86.04;95420.31;5051552;28;20502;-72
2023/01/23 06:53:57;;;;;;;5.20;3.20;;;;;;;8.94;87.15;95411.31;5051456;28;20490;-73
2023/01/23 06:56:23;;;;;;;6.23;3.13;;;;;;;8.88;87.35;95438.31;5051527;28;21044;-73
2023/01/23 06:58:48;;;;;;;5.47;3.42;;;;;;;8.65;88.31;95417.44;5051615;28;20416;-73
2023/01/23 07:01:16;;;;;;;6.63;3.80;;;;;;;8.58;89.22;95432.31;5051577;28;20407;-73
2023/01/23 07:03:43;;;;;;;9.82;4.13;;;;;;;8.62;89.75;95449.31;5051210;28;20411;-73
2023/01/23 07:06:10;;;;;;;7.80;4.57;;;;;;;8.62;89.74;95449.31;5070106;28;20868;-73
2023/01/23 07:08:35;;;;;;;7.47;4.60;;;;;;;8.66;89.50;95453.19;5070830;28;20432;-73
2023/01/23 07:11:01;;;;;;;8.60;4.93;;;;;;;8.60;89.88;95454.75;5071225;28;20514;-73
2023/01/23 07:13:27;;;;;;;8.00;5.18;;;;;;;8.59;89.87;95462.78;5070679;28;20410;-73
2023/01/23 07:15:52;;;;;;;8.03;4.80;;;;;;;8.32;90.23;95466.88;5071033;28;20413;-73
2023/01/23 07:18:17;;;;;;;7.47;4.57;;;;;;;8.30;90.54;95463.63;5070862;28;20416;-73
2023/01/23 07:20:46;;;;;;;8.13;4.50;;;;;;;8.38;90.93;95462.75;5070659;28;20415;-73
2023/01/23 07:23:12;;;;;;;6.22;4.13;;;;;;;8.32;90.27;95459.03;5070692;28;20417;-73
2023/01/23 07:25:38;;;;;;;6.55;4.68;;;;;;;8.28;90.86;95481.34;5070636;28;20762;-73
2023/01/23 07:28:04;;;;;;;9.05;4.15;;;;;;;8.20;91.05;95465.69;5071635;28;20416;-73
2023/01/23 07:30:30;;;;;;;7.72;4.72;;;;;;;8.19;91.57;95477.19;5070628;28;20433;-73
2023/01/23 07:32:57;;;;;;;7.95;5.30;;;;;;;8.08;92.05;95461.88;5069903;28;20421;-73
2023/01/23 07:35:23;;;;;;;10.23;6.03;;;;;;;8.16;92.53;95469.66;5070644;28;20417;-73
2023/01/23 07:37:48;;;;;;;9.20;5.43;;;;;;;8.28;91.62;95484.78;5070143;28;20503;-73
2023/01/23 07:40:14;;;;;;;8.33;5.10;;;;;;;8.41;91.15;95489.41;5070851;28;20414;-73
2023/01/23 07:42:40;;;;;;;9.83;5.23;;;;;;;8.26;91.86;95493.81;5070743;28;20774;-73
2023/01/23 07:45:07;;;;;;;10.07;5.70;;;;;;;8.23;92.40;95492.38;5070479;28;20441;-73
2023/01/23 07:47:33;;;;;;;11.88;6.22;;;;;;;8.17;92.92;95492.28;5069266;28;20474;-73
2023/01/23 07:49:59;;;;;;;10.00;5.88;;;;;;;8.26;92.04;95485.94;5070470;28;20437;-73
2023/01/23 07:52:24;;;;;;;10.80;5.73;;;;;;;8.12;92.59;95479.72;5069202;28;20533;-73
2023/01/23 07:54:49;;;;;;;9.00;5.50;;;;;;;8.18;93.10;95478.19;5050842;28;20411;-73
2023/01/23 07:57:15;;;;;;;10.87;6.07;;;;;;;8.10;92.76;95486.94;5049799;28;20422;-73
2023/01/23 07:59:40;;;;;;;9.57;5.78;;;;;;;7.99;93.11;95515.41;5049975;28;20403;-74
2023/01/23 08:02:09;;;;;;;12.37;5.97;;;;;;;7.91;93.97;95496.13;5048843;28;20427;-73
2023/01/23 08:04:35;;;;;;;10.35;6.22;;;;;;;8.05;93.93;95493.69;5049978;28;20488;-73
2023/01/23 08:07:01;;;;;;;11.80;4.80;;;;;;;8.15;92.73;95494.25;5065963;28;20645;-73
2023/01/23 08:09:26;;;;;;;8.20;4.97;;;;;;;8.16;92.24;95501.94;5071133;28;20247;-73
2023/01/23 08:11:52;;;;;;;9.30;4.40;;;;;;;8.26;91.82;95507.75;5051291;28;20183;-73
2023/01/23 08:14:17;;;;;;;6.17;4.03;;;;;;;8.13;91.24;95506.75;5051138;28;20175;-73
2023/01/23 08:16:43;;;;;;;11.63;4.90;;;;;;;8.16;91.97;95503.75;5050938;28;20190;-73
2023/01/23 08:19:08;;;;;;;9.50;4.77;;;;;;;8.21;91.60;95519.78;5051088;28;20257;-72
2023/01/23 08:21:35;;;;;;;6.53;4.10;;;;;;;8.11;90.34;95534.97;5070543;28;20634;-72
2023/01/23 08:24:01;;;;;;;8.07;3.47;;;;;;;8.02;91.13;95522.91;5070724;28;20181;-72
2023/01/23 08:26:27;;;;;;;6.27;4.30;;;;;;;8.01;90.75;95532.59;5070742;28;20200;-72
2023/01/23 08:28:52;;;;;;;7.23;2.93;;;;;;;7.98;89.66;95538.16;5070624;28;20210;-73
2023/01/23 08:31:18;;;;;;;8.00;4.00;;;;;;;7.96;89.85;95527.84;5070980;28;20253;-73
2023/01/23 08:33:43;;;;;;;7.80;4.33;;;;;;;8.07;89.93;95541.53;5070590;28;20174;-73
2023/01/23 08:36:12;;;;;;;5.17;3.57;;;;;;;8.17;89.35;95540.28;5054918;28;20261;-73
2023/01/23 08:38:37;;;;;;;11.27;4.83;;;;;;;8.21;89.12;95546.00;5049348;28;20834;-73
2023/01/23 08:41:03;;;;;;;6.83;4.07;;;;;;;8.17;87.71;95529.81;5049457;28;20446;-73
2023/01/23 08:43:29;;;;;;;6.93;3.70;;;;;;;8.25;88.17;95524.47;5050794;28;20189;-74
2023/01/23 08:45:57;;;;;;;6.47;4.30;;;;;;;8.22;86.92;95543.19;5049544;28;20445;-73
2023/01/23 08:48:24;;;;;;;7.47;4.75;;;;;;;8.27;87.23;95555.78;5049729;28;20403;-73
2023/01/23 08:50:57;;;;;;;6.57;4.13;;;;;;;8.08;87.45;95533.50;5049598;28;20474;-73
2023/01/23 08:53:22;;;;;;;5.10;3.10;;;;;;;8.06;87.13;95535.47;5050323;28;20422;-73
2023/01/23 08:55:48;;;;;;;5.20;3.03;;;;;;;8.06;87.55;95551.22;5050269;28;20224;-72
2023/01/23 08:58:13;;;;;;;4.43;3.03;;;;;;;8.08;86.65;95559.72;5050379;28;20179;-73
2023/01/23 09:00:39;;;;;;;6.50;3.30;;;;;;;8.08;87.08;95556.28;5050297;28;20174;-74
2023/01/23 09:03:05;;;;;;;4.77;3.03;;;;;;;7.93;86.97;95567.56;5050571;28;20206;-73
2023/01/23 09:05:31;;;;;;;5.47;3.00;;;;;;;7.86;87.22;95555.34;5050390;28;20175;-73
2023/01/23 09:07:57;;;;;;;6.03;3.20;;;;;;;7.92;87.50;95550.19;5050331;28;20175;-73
2023/01/23 09:10:23;;;;;;;6.47;3.43;;;;;;;7.87;87.56;95551.72;5050184;28;20709;-73
2023/01/23 09:12:53;;;;;;;6.80;4.43;;;;;;;7.90;87.74;95544.31;5050511;28;20213;-73
2023/01/23 09:15:19;;;;;;;6.03;3.10;;;;;;;7.96;86.77;95548.00;5050526;28;21007;-73
2023/01/23 09:17:44;;;;;;;6.03;3.40;;;;;;;7.99;86.84;95541.63;5050227;28;20654;-73
2023/01/23 09:20:10;;;;;;;6.60;3.10;;;;;;;8.00;86.21;95551.94;5050101;28;20166;-73
2023/01/23 09:22:36;;;;;;;4.50;2.87;;;;;;;7.83;86.75;95548.63;5050076;28;20665;-73
2023/01/23 09:25:02;;;;;;;6.57;3.03;;;;;;;7.79;87.02;95567.50;5050118;28;20179;-72
2023/01/23 09:27:28;;;;;;;5.43;3.67;;;;;;;7.83;87.36;95543.38;5050002;28;20171;-72
2023/01/23 09:29:53;;;;;;;6.17;3.47;;;;;;;7.94;86.96;95539.53;5050040;28;20340;-73
2023/01/23 09:32:19;;;;;;;4.83;2.80;;;;;;;7.96;86.80;95532.28;5050112;28;20233;-72
2023/01/23 09:34:47;;;;;;;5.07;3.10;;;;;;;8.00;86.45;95543.25;5049802;28;20187;-72
2023/01/23 09:37:13;;;;;;;6.80;3.07;;;;;;;8.09;86.43;95531.69;5049663;28;20594;-72
2023/01/23 09:39:39;;;;;;;8.40;2.87;;;;;;;8.12;86.58;95537.41;5049718;28;20175;-72
2023/01/23 09:42:07;;;;;;;3.80;2.80;;;;;;;8.00;86.83;95532.75;5050110;28;20178;-72
2023/01/23 09:44:35;;;;;;;3.60;2.60;;;;;;;7.78;87.75;95542.31;5049963;28;20280;-72
2023/01/23 09:47:09;;;;;;;4.40;2.83;;;;;;;7.75;88.67;95535.59;5049762;28;20253;-72
2023/01/23 09:49:45;;;;;;;3.67;2.43;;;;;;;7.77;88.78;95551.97;5049596;28;20198;-72
2023/01/23 09:52:15;;;;;;;6.93;2.67;;;;;;;7.84;88.52;95542.41;5049684;28;20170;-72
2023/01/23 09:54:47;;;;;;;6.07;2.70;;;;;;;7.82;88.48;95540.94;5049799;28;20179;-72
2023/01/23 09:57:12;;;;;;;4.68;3.40;;;;;;;7.83;88.70;95540.78;5050973;28;20411;-72
2023/01/23 09:59:42;;;;;;;4.90;2.90;;;;;;;7.71;89.13;95544.78;5052297;28;20414;-72
2023/01/23 10:02:19;;;;;;;4.90;3.43;;;;;;;7.81;89.05;95545.38;5052602;28;21037;-72
2023/01/23 10:04:50;;;;;;;4.72;3.42;;;;;;;7.84;88.78;95538.97;5052249;28;20407;-72
2023/01/23 10:07:35;;;;;;;5.67;2.77;;;;;;;7.96;88.81;95540.97;5053621;28;20605;-72
2023/01/23 10:10:44;;;;;;;5.88;3.38;;;;;;;8.10;89.45;95538.56;5051152;28;20427;-71
2023/01/23 10:13:17;;;;;;;5.55;3.53;;;;;;;8.24;88.51;95535.97;5039213;28;20431;-72
2023/01/23 10:15:58;;;;;;;8.05;3.72;;;;;;;7.89;89.08;95532.19;5051810;28;20972;-72
2023/01/23 10:18:31;;;;;;;6.60;3.75;;;;;;;7.88;90.34;95530.56;5052430;28;20926;-73
2023/01/23 10:21:05;;;;;;;5.73;3.67;;;;;;;7.96;89.66;95524.41;5052984;28;20206;-72
2023/01/23 10:23:53;;;;;;;5.47;3.00;;;;;;;7.71;90.12;95536.94;5053084;28;20171;-72
2023/01/23 10:26:25;;;;;;;5.65;3.35;;;;;;;7.59;91.44;95527.88;5053081;28;20308;-72
2023/01/23 10:28:56;;;;;;;5.37;3.43;;;;;;;7.61;91.27;95533.72;5053002;28;20206;-73
2023/01/23 10:31:27;;;;;;;7.77;4.10;;;;;;;7.65;91.29;95542.06;5050053;28;20840;-73
2023/01/23 10:34:08;;;;;;;5.35;4.07;;;;;;;7.55;92.20;95534.44;5061769;28;20409;-73
2023/01/23 10:37:00;;;;;;;7.57;4.43;;;;;;;7.65;91.91;95539.44;5054806;28;20991;-74
2023/01/23 10:39:31;;;;;;;6.67;4.53;;;;;;;7.66;92.31;95541.06;5045375;28;20424;-73
2023/01/23 10:41:57;;;;;;;6.90;4.50;;;;;;;7.74;92.33;95547.06;5062144;28;20417;-73
2023/01/23 10:44:22;;;;;;;7.35;4.47;;;;;;;7.95;91.72;95535.94;5056131;28;20427;-74
2023/01/23 10:47:00;;;;;;;5.53;4.00;;;;;;;7.93;91.56;95538.72;5052987;28;20266;-73
2023/01/23 10:49:36;;;;;;;6.47;4.32;;;;;;;7.87;91.36;95523.69;5064660;28;20489;-73
2023/01/23 10:52:04;;;;;;;5.93;4.22;;;;;;;7.83;91.80;95529.47;5062613;28;20916;-73
2023/01/23 10:54:29;;;;;;;6.10;4.47;;;;;;;7.87;91.69;95536.00;5055356;28;20412;-73
2023/01/23 10:57:02;;;;;;;7.47;4.97;;;;;;;7.97;91.16;95533.91;5067037;28;20438;-73
2023/01/23 10:59:40;;;;;;;7.25;4.18;;;;;;;7.90;91.04;95539.06;5056400;28;20923;-73
2023/01/23 11:02:11;;;;;;;7.13;4.75;;;;;;;7.77;92.83;95527.56;5058627;28;20474;-73
2023/01/23 11:04:36;;;;;;;5.53;4.00;;;;;;;7.81;92.65;95523.59;5068025;28;20182;-73
2023/01/23 11:07:26;;;;;;;7.27;4.17;;;;;;;7.83;92.19;95527.66;5053655;28;20175;-73
2023/01/23 11:10:00;;;;;;;7.10;4.60;;;;;;;7.92;92.27;95544.13;5061654;28;20242;-73
2023/01/23 11:12:32;;;;;;;6.67;3.80;;;;;;;7.69;93.07;95538.94;5065857;28;20178;-73
2023/01/23 11:15:12;;;;;;;8.00;5.18;;;;;;;7.64;93.62;95528.16;5053475;28;20429;-74
2023/01/23 11:17:38;;;;;;;8.30;5.45;;;;;;;7.54;94.44;95523.13;5062949;28;20419;-73
2023/01/23 11:20:30;;;;;;;9.88;5.82;;;;;;;7.52;94.42;95526.94;5061857;28;20464;-74
2023/01/23 11:23:09;;;;;;;9.23;5.65;;;;;;;7.62;94.73;95547.63;5052550;28;20427;-73
2023/01/23 11:25:41;;;;;;;10.02;5.93;;;;;;;7.50;94.89;95536.78;5055424;28;20926;-73
2023/01/23 11:28:32;;;;;;;8.90;5.20;;;;;;;7.41;95.47;95527.34;5056334;28;20427;-74
2023/01/23 11:31:18;;;;;;;8.20;5.60;;;;;;;7.47;95.22;95522.22;5067146;28;20413;-75
2023/01/23 11:33:51;;;;;;;9.15;5.53;;;;;;;7.46;95.60;95525.00;5062106;28;20481;-74
2023/01/23 11:36:16;;;;;;;7.68;4.97;;;;;;;7.43;95.81;95536.66;5053721;28;20472;-74
2023/01/23 11:38:51;;;;;;;7.80;4.80;;;;;;;7.40;95.68;95542.25;5066391;28;20437;-75
2023/01/23 11:41:16;;;;;;;8.18;5.25;;;;;;;7.34;96.52;95521.19;5049242;28;21120;-74
2023/01/23 11:43:42;;;;;;;8.77;5.53;;;;;;;7.39;96.39;95534.56;5061662;28;20496;-75
2023/01/23 11:46:25;;;;;;;9.97;5.73;;;;;;;7.51;96.46;95530.56;5051278;28;20502;-75
2023/01/23 11:49:06;;;;;;;6.63;5.00;;;;;;;7.54;95.81;95525.75;5066480;28;20531;-74
2023/01/23 11:51:44;;;;;;;8.85;5.82;;;;;;;7.46;96.13;95525.81;5055526;28;20417;-74
2023/01/23 11:54:36;;;;;;;9.43;5.70;;;;;;;7.51;96.30;95520.88;5058202;28;20418;-74